Hauptseite
METAR-TAF:

METAR-TAF

Flughäfen :

Militärflugplatz Deelen

Arnheim, Niederlande

Breite: 52-04N, Länge: 005-53E, Höhe: 48 m

Beobachtung

Neuester Wetterbericht von vor 29 Minuten, um 17:25 UTC
Wind 9 kt aus Süd, variierte zwischen Südost und Südwest
Temperatur 3°C
Luftfeuchtigkeit 100%
Luftdruck 1016 hPa
Sichtweite: 2500 m
Durchbrochene Bewölkung in der Höhe von 200 ft
Aufgelockert bewölkt in der Höhe von 1500 ft, Kumulonimbus.
Regenschauer

METAR: EHDL 301725Z AUTO 19009KT 140V230 2500 -SHRA BKN002 SCT015CB 03/03 Q1016 AMB

Zeit: 18:54 (17:54 UTC)


TAF: fehlend

Wetterbeobachtungen und Prognosen von mehr als 4000 Flughäfen (METAR und TAF Bericht).

Die verfügbaren Stationen werden durch gelbe und rote Markierungen auf der Karte dargestellt.

Führen Sie die Maus auf sie, um den Namen der Station zu sehen.

Darauf klicken, um die Beobachtung von Wetterbeobachtungen und Prognosen zu sehen.

Um die Karte zu ändern : klicken Sie auf den grünen Tasten mit einem schwarzen Kreuz Zum Vergrößern, auf den grünen Button mit einem Gedankenstrich zu verkleinern, oder auf die grünen Pfeile für benachbarte Karten.


METAR-TAF: